sensor_id;sensor_type;location;lat;lon;timestamp;temperature;humidity
35645;DHT22;21764;52.042;6.830;2022-10-23T00:03:59;12.20;99.90
35645;DHT22;21764;52.042;6.830;2022-10-23T00:09:00;12.30;99.90
35645;DHT22;21764;52.042;6.830;2022-10-23T00:14:03;12.10;99.90
35645;DHT22;21764;52.042;6.830;2022-10-23T00:19:04;12.20;99.90
35645;DHT22;21764;52.042;6.830;2022-10-23T00:24:06;12.10;99.90
35645;DHT22;21764;52.042;6.830;2022-10-23T00:29:08;12.00;99.90
35645;DHT22;21764;52.042;6.830;2022-10-23T00:34:09;11.70;99.90
35645;DHT22;21764;52.042;6.830;2022-10-23T00:39:10;11.60;99.90
35645;DHT22;21764;52.042;6.830;2022-10-23T00:49:17;11.90;99.90
35645;DHT22;21764;52.042;6.830;2022-10-23T00:54:22;12.00;99.90
35645;DHT22;21764;52.042;6.830;2022-10-23T00:59:24;12.20;99.90
35645;DHT22;21764;52.042;6.830;2022-10-23T01:04:26;12.10;99.90
35645;DHT22;21764;52.042;6.830;2022-10-23T01:15:17;12.00;99.90
35645;DHT22;21764;52.042;6.830;2022-10-23T01:20:49;12.20;99.90
35645;DHT22;21764;52.042;6.830;2022-10-23T01:31:43;11.90;99.90
35645;DHT22;21764;52.042;6.830;2022-10-23T01:36:47;11.70;99.90
35645;DHT22;21764;52.042;6.830;2022-10-23T01:41:54;11.90;99.90
35645;DHT22;21764;52.042;6.830;2022-10-23T01:46:57;11.80;99.90
35645;DHT22;21764;52.042;6.830;2022-10-23T01:52:01;11.80;99.90
35645;DHT22;21764;52.042;6.830;2022-10-23T01:57:04;11.80;99.90
35645;DHT22;21764;52.042;6.830;2022-10-23T02:02:09;11.80;99.90
35645;DHT22;21764;52.042;6.830;2022-10-23T02:07:11;11.60;99.90
35645;DHT22;21764;52.042;6.830;2022-10-23T02:23:34;11.90;99.90
35645;DHT22;21764;52.042;6.830;2022-10-23T02:28:41;11.80;99.90
35645;DHT22;21764;52.042;6.830;2022-10-23T02:33:44;11.90;99.90
35645;DHT22;21764;52.042;6.830;2022-10-23T02:38:45;11.90;99.90
35645;DHT22;21764;52.042;6.830;2022-10-23T02:44:04;11.80;99.90
35645;DHT22;21764;52.042;6.830;2022-10-23T02:49:21;12.00;99.90
35645;DHT22;21764;52.042;6.830;2022-10-23T02:59:46;12.00;99.90
35645;DHT22;21764;52.042;6.830;2022-10-23T03:04:55;12.20;99.90
35645;DHT22;21764;52.042;6.830;2022-10-23T03:09:55;12.10;99.90
35645;DHT22;21764;52.042;6.830;2022-10-23T03:14:56;11.80;99.90
35645;DHT22;21764;52.042;6.830;2022-10-23T03:19:57;11.80;99.90
35645;DHT22;21764;52.042;6.830;2022-10-23T03:24:57;11.80;99.90
35645;DHT22;21764;52.042;6.830;2022-10-23T03:29:58;11.70;99.90
35645;DHT22;21764;52.042;6.830;2022-10-23T03:34:59;11.80;99.90
35645;DHT22;21764;52.042;6.830;2022-10-23T03:40:00;11.80;99.90
35645;DHT22;21764;52.042;6.830;2022-10-23T03:45:01;11.70;99.90
35645;DHT22;21764;52.042;6.830;2022-10-23T03:50:01;11.80;99.90
35645;DHT22;21764;52.042;6.830;2022-10-23T03:55:02;11.80;99.90
35645;DHT22;21764;52.042;6.830;2022-10-23T04:00:04;11.80;99.90
35645;DHT22;21764;52.042;6.830;2022-10-23T04:05:05;11.90;99.90
35645;DHT22;21764;52.042;6.830;2022-10-23T04:10:06;11.70;99.90
35645;DHT22;21764;52.042;6.830;2022-10-23T04:15:07;11.60;99.90
35645;DHT22;21764;52.042;6.830;2022-10-23T04:20:08;11.90;99.90
35645;DHT22;21764;52.042;6.830;2022-10-23T04:25:09;11.90;99.90
35645;DHT22;21764;52.042;6.830;2022-10-23T04:30:10;12.10;99.90
35645;DHT22;21764;52.042;6.830;2022-10-23T04:35:11;12.10;99.90
35645;DHT22;21764;52.042;6.830;2022-10-23T04:40:12;12.10;99.90
35645;DHT22;21764;52.042;6.830;2022-10-23T04:45:12;12.10;99.90
35645;DHT22;21764;52.042;6.830;2022-10-23T04:50:14;12.10;99.90
35645;DHT22;21764;52.042;6.830;2022-10-23T04:55:15;12.20;99.90
35645;DHT22;21764;52.042;6.830;2022-10-23T05:00:16;12.20;99.90
35645;DHT22;21764;52.042;6.830;2022-10-23T05:05:16;12.10;99.90
35645;DHT22;21764;52.042;6.830;2022-10-23T05:10:17;12.20;99.90
35645;DHT22;21764;52.042;6.830;2022-10-23T05:15:18;12.20;99.90
35645;DHT22;21764;52.042;6.830;2022-10-23T05:20:22;12.30;99.90
35645;DHT22;21764;52.042;6.830;2022-10-23T05:25:24;12.40;99.90
35645;DHT22;21764;52.042;6.830;2022-10-23T05:30:24;12.40;99.90
35645;DHT22;21764;52.042;6.830;2022-10-23T05:35:25;12.50;99.90
35645;DHT22;21764;52.042;6.830;2022-10-23T05:40:30;12.50;99.90
35645;DHT22;21764;52.042;6.830;2022-10-23T05:45:31;12.50;99.90
35645;DHT22;21764;52.042;6.830;2022-10-23T05:50:35;12.60;99.90
35645;DHT22;21764;52.042;6.830;2022-10-23T05:55:36;12.60;99.90
35645;DHT22;21764;52.042;6.830;2022-10-23T06:00:37;12.60;99.90
35645;DHT22;21764;52.042;6.830;2022-10-23T06:05:38;12.60;99.90
35645;DHT22;21764;52.042;6.830;2022-10-23T06:10:38;12.60;99.90
35645;DHT22;21764;52.042;6.830;2022-10-23T06:15:39;12.60;99.90
35645;DHT22;21764;52.042;6.830;2022-10-23T06:20:40;12.60;99.90
35645;DHT22;21764;52.042;6.830;2022-10-23T06:25:40;12.50;99.90
35645;DHT22;21764;52.042;6.830;2022-10-23T06:30:41;12.70;99.90
35645;DHT22;21764;52.042;6.830;2022-10-23T06:35:42;12.60;99.90
35645;DHT22;21764;52.042;6.830;2022-10-23T06:40:43;12.70;99.90
35645;DHT22;21764;52.042;6.830;2022-10-23T06:45:46;12.60;99.90
35645;DHT22;21764;52.042;6.830;2022-10-23T06:50:47;12.70;99.90
35645;DHT22;21764;52.042;6.830;2022-10-23T06:55:51;12.80;99.90
35645;DHT22;21764;52.042;6.830;2022-10-23T07:00:51;12.80;99.90
35645;DHT22;21764;52.042;6.830;2022-10-23T07:05:52;13.00;99.90
35645;DHT22;21764;52.042;6.830;2022-10-23T07:10:53;13.00;99.90
35645;DHT22;21764;52.042;6.830;2022-10-23T07:15:53;13.10;99.90
35645;DHT22;21764;52.042;6.830;2022-10-23T07:20:57;13.10;99.90
35645;DHT22;21764;52.042;6.830;2022-10-23T07:26:12;13.10;99.90
35645;DHT22;21764;52.042;6.830;2022-10-23T07:31:16;13.30;99.90
35645;DHT22;21764;52.042;6.830;2022-10-23T07:36:18;13.30;99.90
35645;DHT22;21764;52.042;6.830;2022-10-23T07:41:18;13.50;99.90
35645;DHT22;21764;52.042;6.830;2022-10-23T07:46:19;13.70;99.90
35645;DHT22;21764;52.042;6.830;2022-10-23T07:51:20;13.60;99.90
35645;DHT22;21764;52.042;6.830;2022-10-23T07:56:26;13.90;99.90
35645;DHT22;21764;52.042;6.830;2022-10-23T08:01:33;13.80;99.90
35645;DHT22;21764;52.042;6.830;2022-10-23T08:06:35;14.10;99.90
35645;DHT22;21764;52.042;6.830;2022-10-23T08:11:36;14.20;99.90
35645;DHT22;21764;52.042;6.830;2022-10-23T08:16:37;14.20;99.90
35645;DHT22;21764;52.042;6.830;2022-10-23T08:21:39;14.20;99.90
35645;DHT22;21764;52.042;6.830;2022-10-23T08:26:39;14.10;99.90
35645;DHT22;21764;52.042;6.830;2022-10-23T08:31:40;14.20;99.90
35645;DHT22;21764;52.042;6.830;2022-10-23T08:36:41;14.30;99.90
35645;DHT22;21764;52.042;6.830;2022-10-23T08:41:46;14.30;99.90
35645;DHT22;21764;52.042;6.830;2022-10-23T08:51:54;14.50;99.90
35645;DHT22;21764;52.042;6.830;2022-10-23T08:57:00;14.70;99.90
35645;DHT22;21764;52.042;6.830;2022-10-23T09:02:36;14.80;99.90
35645;DHT22;21764;52.042;6.830;2022-10-23T09:07:46;14.80;99.90
35645;DHT22;21764;52.042;6.830;2022-10-23T09:12:49;14.90;99.90
35645;DHT22;21764;52.042;6.830;2022-10-23T09:17:57;15.20;99.90
35645;DHT22;21764;52.042;6.830;2022-10-23T09:23:13;15.50;99.90
35645;DHT22;21764;52.042;6.830;2022-10-23T09:28:22;15.50;99.90
35645;DHT22;21764;52.042;6.830;2022-10-23T09:33:25;15.70;99.90
35645;DHT22;21764;52.042;6.830;2022-10-23T09:43:30;15.40;99.90
35645;DHT22;21764;52.042;6.830;2022-10-23T09:48:32;15.50;99.90
35645;DHT22;21764;52.042;6.830;2022-10-23T09:53:48;15.60;99.90
35645;DHT22;21764;52.042;6.830;2022-10-23T10:04:11;15.50;99.90
35645;DHT22;21764;52.042;6.830;2022-10-23T10:09:15;15.80;99.90
35645;DHT22;21764;52.042;6.830;2022-10-23T10:14:38;15.70;99.90
35645;DHT22;21764;52.042;6.830;2022-10-23T10:47:25;16.00;99.90
35645;DHT22;21764;52.042;6.830;2022-10-23T10:52:50;16.10;99.90
35645;DHT22;21764;52.042;6.830;2022-10-23T10:58:00;16.10;99.90
35645;DHT22;21764;52.042;6.830;2022-10-23T11:08:35;16.20;99.90
35645;DHT22;21764;52.042;6.830;2022-10-23T11:13:41;16.30;99.90
35645;DHT22;21764;52.042;6.830;2022-10-23T11:18:45;16.20;99.90
35645;DHT22;21764;52.042;6.830;2022-10-23T11:39:59;16.30;99.90
35645;DHT22;21764;52.042;6.830;2022-10-23T11:45:00;16.30;99.90
35645;DHT22;21764;52.042;6.830;2022-10-23T11:55:28;16.40;99.90
35645;DHT22;21764;52.042;6.830;2022-10-23T12:00:29;16.40;99.90
35645;DHT22;21764;52.042;6.830;2022-10-23T12:05:36;16.40;99.90
35645;DHT22;21764;52.042;6.830;2022-10-23T12:10:46;16.50;99.90
35645;DHT22;21764;52.042;6.830;2022-10-23T12:15:52;16.60;99.90
35645;DHT22;21764;52.042;6.830;2022-10-23T12:20:58;16.70;99.90
35645;DHT22;21764;52.042;6.830;2022-10-23T12:31:49;16.70;99.90
35645;DHT22;21764;52.042;6.830;2022-10-23T12:42:20;17.20;99.90
35645;DHT22;21764;52.042;6.830;2022-10-23T12:47:21;17.40;99.90
35645;DHT22;21764;52.042;6.830;2022-10-23T12:52:22;17.60;99.90
35645;DHT22;21764;52.042;6.830;2022-10-23T12:57:25;17.70;99.90
35645;DHT22;21764;52.042;6.830;2022-10-23T13:02:29;17.80;99.90
35645;DHT22;21764;52.042;6.830;2022-10-23T13:07:36;17.80;99.90
35645;DHT22;21764;52.042;6.830;2022-10-23T13:12:40;17.90;99.90
35645;DHT22;21764;52.042;6.830;2022-10-23T13:17:46;18.10;99.90
35645;DHT22;21764;52.042;6.830;2022-10-23T13:22:51;18.10;99.90
35645;DHT22;21764;52.042;6.830;2022-10-23T13:28:11;18.30;99.90
35645;DHT22;21764;52.042;6.830;2022-10-23T13:33:18;18.30;99.90
35645;DHT22;21764;52.042;6.830;2022-10-23T13:43:32;18.60;99.90
35645;DHT22;21764;52.042;6.830;2022-10-23T13:48:33;18.70;99.90
35645;DHT22;21764;52.042;6.830;2022-10-23T13:53:33;18.60;99.90
35645;DHT22;21764;52.042;6.830;2022-10-23T13:58:34;18.60;99.90
35645;DHT22;21764;52.042;6.830;2022-10-23T14:03:34;18.60;99.90
35645;DHT22;21764;52.042;6.830;2022-10-23T14:08:36;18.50;99.90
35645;DHT22;21764;52.042;6.830;2022-10-23T14:13:37;18.50;99.90
35645;DHT22;21764;52.042;6.830;2022-10-23T14:18:37;18.50;99.90
35645;DHT22;21764;52.042;6.830;2022-10-23T14:23:38;18.40;99.90
35645;DHT22;21764;52.042;6.830;2022-10-23T14:28:39;18.40;99.90
35645;DHT22;21764;52.042;6.830;2022-10-23T14:33:40;18.30;99.90
35645;DHT22;21764;52.042;6.830;2022-10-23T14:38:41;18.30;99.90
35645;DHT22;21764;52.042;6.830;2022-10-23T14:43:42;18.30;99.90
35645;DHT22;21764;52.042;6.830;2022-10-23T14:48:43;18.20;99.90
35645;DHT22;21764;52.042;6.830;2022-10-23T14:53:45;18.20;99.90
35645;DHT22;21764;52.042;6.830;2022-10-23T14:58:46;18.20;99.90
35645;DHT22;21764;52.042;6.830;2022-10-23T15:03:46;18.00;99.90
35645;DHT22;21764;52.042;6.830;2022-10-23T15:08:54;18.00;99.90
35645;DHT22;21764;52.042;6.830;2022-10-23T15:13:55;17.90;99.90
35645;DHT22;21764;52.042;6.830;2022-10-23T15:18:58;18.00;99.90
35645;DHT22;21764;52.042;6.830;2022-10-23T15:23:59;17.90;99.90
35645;DHT22;21764;52.042;6.830;2022-10-23T15:29:01;17.90;99.90
35645;DHT22;21764;52.042;6.830;2022-10-23T15:34:02;17.90;99.90
35645;DHT22;21764;52.042;6.830;2022-10-23T15:39:07;17.80;99.90
35645;DHT22;21764;52.042;6.830;2022-10-23T15:44:12;17.80;99.90
35645;DHT22;21764;52.042;6.830;2022-10-23T15:49:13;17.70;99.90
35645;DHT22;21764;52.042;6.830;2022-10-23T15:54:15;17.80;99.90
35645;DHT22;21764;52.042;6.830;2022-10-23T15:59:19;17.70;99.90
35645;DHT22;21764;52.042;6.830;2022-10-23T16:04:21;17.70;99.90
35645;DHT22;21764;52.042;6.830;2022-10-23T16:09:22;17.80;99.90
35645;DHT22;21764;52.042;6.830;2022-10-23T16:14:23;17.70;99.90
35645;DHT22;21764;52.042;6.830;2022-10-23T16:19:23;17.70;99.90
35645;DHT22;21764;52.042;6.830;2022-10-23T16:24:24;17.60;99.90
35645;DHT22;21764;52.042;6.830;2022-10-23T16:29:26;17.50;99.90
35645;DHT22;21764;52.042;6.830;2022-10-23T16:34:28;17.50;99.90
35645;DHT22;21764;52.042;6.830;2022-10-23T16:39:29;17.50;99.90
35645;DHT22;21764;52.042;6.830;2022-10-23T16:44:31;17.40;99.90
35645;DHT22;21764;52.042;6.830;2022-10-23T16:49:31;17.40;99.90
35645;DHT22;21764;52.042;6.830;2022-10-23T16:54:32;17.30;99.90
35645;DHT22;21764;52.042;6.830;2022-10-23T16:59:33;17.40;99.90
35645;DHT22;21764;52.042;6.830;2022-10-23T17:04:35;17.40;99.90
35645;DHT22;21764;52.042;6.830;2022-10-23T17:09:35;17.50;99.90
35645;DHT22;21764;52.042;6.830;2022-10-23T17:14:37;17.70;99.90
35645;DHT22;21764;52.042;6.830;2022-10-23T17:19:39;17.60;99.90
35645;DHT22;21764;52.042;6.830;2022-10-23T17:24:41;16.10;99.90
35645;DHT22;21764;52.042;6.830;2022-10-23T17:29:42;16.20;99.90
35645;DHT22;21764;52.042;6.830;2022-10-23T17:34:42;16.70;99.90
35645;DHT22;21764;52.042;6.830;2022-10-23T17:39:43;16.90;99.90
35645;DHT22;21764;52.042;6.830;2022-10-23T17:44:44;17.10;99.90
35645;DHT22;21764;52.042;6.830;2022-10-23T17:49:44;17.10;99.90
35645;DHT22;21764;52.042;6.830;2022-10-23T17:54:45;17.00;99.90
35645;DHT22;21764;52.042;6.830;2022-10-23T17:59:46;17.00;99.90
35645;DHT22;21764;52.042;6.830;2022-10-23T18:04:46;17.00;99.90
35645;DHT22;21764;52.042;6.830;2022-10-23T18:09:47;17.00;99.90
35645;DHT22;21764;52.042;6.830;2022-10-23T18:14:47;16.90;99.90
35645;DHT22;21764;52.042;6.830;2022-10-23T18:19:51;16.80;99.90
35645;DHT22;21764;52.042;6.830;2022-10-23T18:24:52;16.70;99.90
35645;DHT22;21764;52.042;6.830;2022-10-23T18:29:52;16.60;99.90
35645;DHT22;21764;52.042;6.830;2022-10-23T18:34:53;16.60;99.90
35645;DHT22;21764;52.042;6.830;2022-10-23T18:39:54;16.70;99.90
35645;DHT22;21764;52.042;6.830;2022-10-23T18:44:54;16.60;99.90
35645;DHT22;21764;52.042;6.830;2022-10-23T18:49:55;16.60;99.90
35645;DHT22;21764;52.042;6.830;2022-10-23T18:54:56;16.60;99.90
35645;DHT22;21764;52.042;6.830;2022-10-23T18:59:56;16.50;99.90
35645;DHT22;21764;52.042;6.830;2022-10-23T19:04:57;16.50;99.90
35645;DHT22;21764;52.042;6.830;2022-10-23T19:09:59;16.50;99.90
35645;DHT22;21764;52.042;6.830;2022-10-23T19:14:59;16.50;99.90
35645;DHT22;21764;52.042;6.830;2022-10-23T19:20:13;16.40;99.90
35645;DHT22;21764;52.042;6.830;2022-10-23T19:25:25;16.40;99.90
35645;DHT22;21764;52.042;6.830;2022-10-23T19:30:26;16.20;99.90
35645;DHT22;21764;52.042;6.830;2022-10-23T19:35:27;16.30;99.90
35645;DHT22;21764;52.042;6.830;2022-10-23T19:40:28;16.20;99.90
35645;DHT22;21764;52.042;6.830;2022-10-23T19:45:28;16.30;99.90
35645;DHT22;21764;52.042;6.830;2022-10-23T19:50:29;16.20;99.90
35645;DHT22;21764;52.042;6.830;2022-10-23T19:55:29;16.10;99.90
35645;DHT22;21764;52.042;6.830;2022-10-23T20:00:30;16.20;99.90
35645;DHT22;21764;52.042;6.830;2022-10-23T20:05:31;16.10;99.90
35645;DHT22;21764;52.042;6.830;2022-10-23T20:10:32;16.00;99.90
35645;DHT22;21764;52.042;6.830;2022-10-23T20:15:35;16.00;99.90
35645;DHT22;21764;52.042;6.830;2022-10-23T20:20:40;16.30;99.90
35645;DHT22;21764;52.042;6.830;2022-10-23T20:25:41;16.40;99.90
35645;DHT22;21764;52.042;6.830;2022-10-23T20:30:42;16.30;99.90
35645;DHT22;21764;52.042;6.830;2022-10-23T20:35:44;16.00;99.90
35645;DHT22;21764;52.042;6.830;2022-10-23T20:40:45;15.90;99.90
35645;DHT22;21764;52.042;6.830;2022-10-23T20:45:46;16.00;99.90
35645;DHT22;21764;52.042;6.830;2022-10-23T20:50:46;16.10;99.90
35645;DHT22;21764;52.042;6.830;2022-10-23T20:55:47;16.10;99.90
35645;DHT22;21764;52.042;6.830;2022-10-23T21:00:48;16.30;99.90
35645;DHT22;21764;52.042;6.830;2022-10-23T21:05:48;16.30;99.90
35645;DHT22;21764;52.042;6.830;2022-10-23T21:10:49;16.20;99.90
35645;DHT22;21764;52.042;6.830;2022-10-23T21:15:50;16.30;99.90
35645;DHT22;21764;52.042;6.830;2022-10-23T21:20:51;16.30;99.90
35645;DHT22;21764;52.042;6.830;2022-10-23T21:25:54;16.30;99.90
35645;DHT22;21764;52.042;6.830;2022-10-23T21:30:54;16.30;99.90
35645;DHT22;21764;52.042;6.830;2022-10-23T21:35:55;16.30;99.90
35645;DHT22;21764;52.042;6.830;2022-10-23T21:41:10;16.20;99.90
35645;DHT22;21764;52.042;6.830;2022-10-23T21:46:12;16.20;99.90
35645;DHT22;21764;52.042;6.830;2022-10-23T21:51:29;16.30;99.90
35645;DHT22;21764;52.042;6.830;2022-10-23T21:56:37;16.50;99.90
35645;DHT22;21764;52.042;6.830;2022-10-23T22:01:40;16.40;99.90
35645;DHT22;21764;52.042;6.830;2022-10-23T22:06:43;16.10;99.90
35645;DHT22;21764;52.042;6.830;2022-10-23T22:11:45;15.90;99.90
35645;DHT22;21764;52.042;6.830;2022-10-23T22:16:46;15.70;99.90
35645;DHT22;21764;52.042;6.830;2022-10-23T22:21:48;15.60;99.90
35645;DHT22;21764;52.042;6.830;2022-10-23T22:26:53;15.60;99.90
35645;DHT22;21764;52.042;6.830;2022-10-23T22:31:54;15.60;99.90
35645;DHT22;21764;52.042;6.830;2022-10-23T22:36:55;15.40;99.90
35645;DHT22;21764;52.042;6.830;2022-10-23T22:41:56;15.40;99.90
35645;DHT22;21764;52.042;6.830;2022-10-23T22:46:56;15.40;99.90
35645;DHT22;21764;52.042;6.830;2022-10-23T22:51:57;15.30;99.90
35645;DHT22;21764;52.042;6.830;2022-10-23T22:56:58;15.30;99.90
35645;DHT22;21764;52.042;6.830;2022-10-23T23:01:58;15.40;99.90
35645;DHT22;21764;52.042;6.830;2022-10-23T23:06:59;15.60;99.90
35645;DHT22;21764;52.042;6.830;2022-10-23T23:11:59;15.80;99.90
35645;DHT22;21764;52.042;6.830;2022-10-23T23:17:00;15.90;99.90
35645;DHT22;21764;52.042;6.830;2022-10-23T23:22:01;15.90;99.90
35645;DHT22;21764;52.042;6.830;2022-10-23T23:27:02;15.80;99.90
35645;DHT22;21764;52.042;6.830;2022-10-23T23:32:02;15.70;99.90
35645;DHT22;21764;52.042;6.830;2022-10-23T23:37:05;15.70;99.90
35645;DHT22;21764;52.042;6.830;2022-10-23T23:42:06;15.70;99.90
35645;DHT22;21764;52.042;6.830;2022-10-23T23:47:06;15.70;99.90
35645;DHT22;21764;52.042;6.830;2022-10-23T23:52:07;15.60;99.90
35645;DHT22;21764;52.042;6.830;2022-10-23T23:57:10;15.50;99.90
